Time;durP1;ratioP1;P1;durP2;ratioP2;P2;SDS_P1;SDS_P2;PMS_P1;PMS_P2;Temp;Humidity;BMP_temperature;BMP_pressure;BME280_temperature;BME280_humidity;BME280_pressure;Samples;Min_cycle;Max_cycle;Signal;HPM_P1;HPM_P2
2021/05/24 00:01:56;;;;;;;3.30;1.60;;;9.00;99.90;;;;;;5071370;28;20040;-69
2021/05/24 00:04:22;;;;;;;5.03;1.70;;;9.00;99.90;;;;;;5070053;28;20035;-69
2021/05/24 00:06:47;;;;;;;4.45;1.70;;;9.00;99.90;;;;;;5071443;28;20028;-68
2021/05/24 00:09:13;;;;;;;4.75;1.60;;;9.00;99.90;;;;;;5071324;28;20442;-68
2021/05/24 00:11:39;;;;;;;4.90;1.67;;;8.90;99.90;;;;;;5074894;28;20032;-69
2021/05/24 00:14:07;;;;;;;5.25;1.70;;;8.90;99.90;;;;;;5071267;28;20029;-68
2021/05/24 00:16:32;;;;;;;3.20;1.50;;;8.90;99.90;;;;;;5069607;28;20021;-69
2021/05/24 00:19:00;;;;;;;2.88;1.50;;;8.90;99.90;;;;;;5070532;28;20031;-69
2021/05/24 00:21:28;;;;;;;4.05;1.55;;;8.90;99.90;;;;;;5069651;28;20047;-68
2021/05/24 00:23:57;;;;;;;4.40;1.70;;;8.90;99.90;;;;;;5071700;28;20141;-69
2021/05/24 00:26:25;;;;;;;3.35;1.83;;;8.90;99.90;;;;;;5056730;28;20029;-69
2021/05/24 00:28:53;;;;;;;3.78;1.55;;;8.80;99.90;;;;;;5070021;28;20033;-69
2021/05/24 00:31:18;;;;;;;3.22;1.65;;;8.80;99.90;;;;;;5071453;28;20040;-69
2021/05/24 00:33:44;;;;;;;5.10;1.80;;;8.80;99.90;;;;;;5068832;28;20094;-69
2021/05/24 00:36:14;;;;;;;3.60;1.50;;;8.80;99.90;;;;;;5073808;28;20040;-69
2021/05/24 00:38:42;;;;;;;4.00;1.60;;;8.80;99.90;;;;;;5071227;28;20029;-69
2021/05/24 00:41:08;;;;;;;4.53;1.67;;;8.80;99.90;;;;;;5069839;28;20035;-69
2021/05/24 00:43:36;;;;;;;5.82;2.00;;;8.70;99.90;;;;;;5053180;28;20032;-69
2021/05/24 00:46:01;;;;;;;3.95;1.65;;;8.70;99.90;;;;;;5053477;28;20035;-68
2021/05/24 00:48:27;;;;;;;4.13;1.70;;;8.70;99.90;;;;;;5067914;28;20028;-69
2021/05/24 00:50:53;;;;;;;4.57;1.73;;;8.70;99.90;;;;;;5070056;28;20028;-69
2021/05/24 00:53:21;;;;;;;4.18;1.60;;;8.70;99.90;;;;;;5067855;28;20028;-68
2021/05/24 00:55:46;;;;;;;5.45;2.00;;;8.70;99.90;;;;;;5070987;28;20262;-69
2021/05/24 00:58:12;;;;;;;6.85;1.73;;;8.70;99.90;;;;;;5068580;28;20525;-68
2021/05/24 01:00:42;;;;;;;4.28;1.80;;;8.70;99.90;;;;;;5076011;28;20093;-68
2021/05/24 01:03:13;;;;;;;3.47;1.67;;;8.70;99.90;;;;;;5077192;28;20048;-68
2021/05/24 01:05:42;;;;;;;4.15;1.75;;;8.70;99.90;;;;;;5069000;28;20032;-69
2021/05/24 01:08:11;;;;;;;3.80;1.80;;;8.70;99.90;;;;;;5069309;28;20036;-68
2021/05/24 01:10:37;;;;;;;3.00;1.60;;;8.60;99.90;;;;;;5069482;28;20067;-68
2021/05/24 01:13:05;;;;;;;6.05;2.35;;;8.60;99.90;;;;;;5070124;28;20123;-69
2021/05/24 01:15:31;;;;;;;4.57;1.70;;;8.60;99.90;;;;;;5070023;28;20056;-68
2021/05/24 01:17:59;;;;;;;5.70;2.08;;;8.60;99.90;;;;;;5069358;28;21802;-68
2021/05/24 01:20:27;;;;;;;4.05;1.83;;;8.60;99.90;;;;;;5070724;28;20111;-69
2021/05/24 01:23:06;;;;;;;3.65;1.60;;;8.60;99.90;;;;;;5067907;28;20045;-69
2021/05/24 01:25:50;;;;;;;5.85;2.08;;;8.50;99.90;;;;;;5068725;28;20035;-68
2021/05/24 01:28:20;;;;;;;5.68;2.20;;;8.60;99.90;;;;;;5068953;28;20064;-69
2021/05/24 01:30:48;;;;;;;3.90;1.67;;;8.50;99.90;;;;;;5069476;28;20025;-69
2021/05/24 01:33:16;;;;;;;3.90;1.90;;;8.50;99.90;;;;;;5068788;28;20115;-69
2021/05/24 01:35:44;;;;;;;4.70;1.80;;;8.50;99.90;;;;;;5070427;28;20035;-69
2021/05/24 01:38:10;;;;;;;3.80;1.70;;;8.50;99.90;;;;;;5067870;28;20033;-68
2021/05/24 01:40:36;;;;;;;3.22;1.67;;;8.50;99.90;;;;;;5068590;28;20317;-68
2021/05/24 01:43:04;;;;;;;6.15;1.83;;;8.50;99.90;;;;;;5070931;28;20489;-68
2021/05/24 01:45:35;;;;;;;3.15;1.73;;;8.50;99.90;;;;;;5068232;28;20493;-69
2021/05/24 01:48:01;;;;;;;4.00;1.73;;;8.50;99.90;;;;;;5077030;28;20071;-68
2021/05/24 01:50:29;;;;;;;4.78;1.90;;;8.50;99.90;;;;;;5052463;28;20427;-68
2021/05/24 01:52:56;;;;;;;4.60;2.10;;;8.40;99.90;;;;;;5068708;28;20071;-68
2021/05/24 01:55:22;;;;;;;4.50;1.80;;;8.50;99.90;;;;;;5070090;28;20513;-68
2021/05/24 01:57:53;;;;;;;4.45;1.80;;;8.50;99.90;;;;;;5069092;28;20038;-69
2021/05/24 02:00:21;;;;;;;4.00;1.80;;;8.40;99.90;;;;;;5068378;28;20194;-68
2021/05/24 02:02:49;;;;;;;3.40;1.90;;;8.40;99.90;;;;;;5065928;28;20029;-68
2021/05/24 02:05:15;;;;;;;3.58;1.88;;;8.40;99.90;;;;;;5054314;28;20024;-68
2021/05/24 02:07:44;;;;;;;3.72;1.88;;;8.40;99.90;;;;;;5066506;28;20024;-69
2021/05/24 02:10:11;;;;;;;3.80;1.85;;;8.40;99.90;;;;;;5069692;28;20126;-68
2021/05/24 02:12:37;;;;;;;4.28;1.70;;;8.40;99.90;;;;;;5068566;28;20036;-68
2021/05/24 02:15:08;;;;;;;5.32;2.00;;;8.40;99.90;;;;;;5066686;28;20027;-69
2021/05/24 02:17:34;;;;;;;4.07;1.80;;;8.40;99.90;;;;;;5050133;28;20032;-69
2021/05/24 02:20:05;;;;;;;3.85;1.70;;;8.40;99.90;;;;;;5069471;28;20016;-68
2021/05/24 02:22:30;;;;;;;3.30;1.70;;;8.30;99.90;;;;;;5065887;28;20131;-68
2021/05/24 02:24:56;;;;;;;4.93;2.10;;;8.40;99.90;;;;;;5066096;28;20349;-68
2021/05/24 02:27:22;;;;;;;3.05;1.70;;;8.30;99.90;;;;;;5068391;28;20028;-68
2021/05/24 02:29:47;;;;;;;3.78;1.80;;;8.30;99.90;;;;;;5069627;28;20493;-68
2021/05/24 02:32:15;;;;;;;4.40;2.00;;;8.30;99.90;;;;;;5076316;28;20657;-68
2021/05/24 02:34:41;;;;;;;5.30;2.00;;;8.30;99.90;;;;;;5075497;28;20041;-68
2021/05/24 02:37:09;;;;;;;3.28;1.67;;;8.30;99.90;;;;;;5067801;28;20032;-68
2021/05/24 02:39:37;;;;;;;2.70;1.70;;;8.30;99.90;;;;;;5066914;28;20126;-68
2021/05/24 02:42:05;;;;;;;4.63;2.08;;;8.30;99.90;;;;;;5068919;28;20716;-68
2021/05/24 02:44:33;;;;;;;4.70;1.88;;;8.20;99.90;;;;;;5068938;28;20044;-68
2021/05/24 02:46:59;;;;;;;5.45;2.00;;;8.20;99.90;;;;;;5068283;28;20040;-68
2021/05/24 02:49:25;;;;;;;5.43;2.10;;;8.20;99.90;;;;;;5070144;28;20040;-69
2021/05/24 02:51:52;;;;;;;3.35;1.88;;;8.20;99.90;;;;;;5068235;28;20523;-68
2021/05/24 02:54:18;;;;;;;4.57;2.53;;;8.20;99.90;;;;;;5068879;28;20449;-68
2021/05/24 02:56:48;;;;;;;3.75;2.00;;;8.10;99.90;;;;;;5066311;28;20043;-68
2021/05/24 02:59:14;;;;;;;4.65;2.00;;;8.10;99.90;;;;;;5084505;28;20678;-68
2021/05/24 03:01:39;;;;;;;4.75;2.00;;;8.10;99.90;;;;;;5066975;28;20044;-68
2021/05/24 03:04:07;;;;;;;4.20;2.25;;;8.10;99.90;;;;;;5067473;28;20048;-68
2021/05/24 03:06:33;;;;;;;4.68;1.95;;;8.00;99.90;;;;;;5070223;28;20041;-68
2021/05/24 03:08:59;;;;;;;3.70;1.80;;;8.00;99.90;;;;;;5068109;28;20029;-68
2021/05/24 03:11:24;;;;;;;4.22;2.00;;;8.00;99.90;;;;;;5065484;28;20060;-68
2021/05/24 03:13:50;;;;;;;5.65;2.00;;;8.00;99.90;;;;;;5067321;28;20029;-69
2021/05/24 03:16:19;;;;;;;4.82;2.33;;;8.00;99.90;;;;;;5065513;28;20032;-69
2021/05/24 03:18:50;;;;;;;4.55;1.90;;;8.00;99.90;;;;;;5067499;28;20094;-68
2021/05/24 03:21:17;;;;;;;4.72;2.15;;;7.90;99.90;;;;;;5069079;28;20047;-68
2021/05/24 03:23:43;;;;;;;7.07;2.30;;;8.00;99.90;;;;;;5071131;28;20062;-69
2021/05/24 03:26:09;;;;;;;4.72;1.90;;;7.90;99.90;;;;;;5072827;28;20035;-69
2021/05/24 03:28:42;;;;;;;5.43;2.00;;;7.90;99.90;;;;;;5072460;28;20040;-69
2021/05/24 03:31:10;;;;;;;6.90;2.13;;;8.00;99.90;;;;;;5071891;28;20135;-68
2021/05/24 03:33:37;;;;;;;5.50;2.00;;;7.90;99.90;;;;;;5069578;28;20029;-69
2021/05/24 03:36:06;;;;;;;6.45;2.08;;;8.00;99.90;;;;;;5069416;28;20109;-69
2021/05/24 03:38:32;;;;;;;5.40;1.98;;;7.90;99.90;;;;;;5072629;28;20023;-68
2021/05/24 03:40:58;;;;;;;4.05;2.00;;;8.00;99.90;;;;;;5071685;28;20031;-68
2021/05/24 03:43:23;;;;;;;4.78;1.90;;;8.00;99.90;;;;;;5072149;28;21891;-68
2021/05/24 03:45:56;;;;;;;4.00;2.00;;;8.00;99.90;;;;;;5071679;28;20513;-68
2021/05/24 03:48:24;;;;;;;4.63;1.98;;;8.00;99.90;;;;;;5087178;28;20038;-68
2021/05/24 03:50:52;;;;;;;4.03;1.77;;;8.00;99.90;;;;;;5071371;28;20038;-68
2021/05/24 03:53:17;;;;;;;5.13;1.98;;;8.00;99.90;;;;;;5069700;28;20104;-68
2021/05/24 03:55:43;;;;;;;4.70;2.00;;;8.00;99.90;;;;;;5060920;28;20024;-68
2021/05/24 03:58:11;;;;;;;5.53;2.10;;;8.00;99.90;;;;;;5071493;28;20039;-68
2021/05/24 04:00:37;;;;;;;3.83;1.67;;;8.00;99.90;;;;;;5070960;28;20025;-68
2021/05/24 04:03:05;;;;;;;4.93;2.00;;;8.00;99.90;;;;;;5071254;28;20052;-68
2021/05/24 04:05:37;;;;;;;5.93;2.25;;;8.00;99.90;;;;;;5071942;28;20036;-68
2021/05/24 04:08:05;;;;;;;4.25;1.90;;;8.00;99.90;;;;;;5071600;28;20044;-68
2021/05/24 04:10:49;;;;;;;5.00;2.10;;;8.10;99.90;;;;;;5072170;28;20032;-69
2021/05/24 04:13:19;;;;;;;4.97;2.28;;;8.00;99.90;;;;;;5070362;28;20028;-68
2021/05/24 04:15:48;;;;;;;3.42;2.00;;;8.00;99.90;;;;;;5072760;28;20109;-68
2021/05/24 04:18:16;;;;;;;4.68;2.20;;;8.00;99.90;;;;;;5068834;28;20349;-68
2021/05/24 04:20:46;;;;;;;4.63;1.90;;;8.00;99.90;;;;;;5070746;28;20036;-68
2021/05/24 04:23:12;;;;;;;4.47;1.80;;;8.00;99.90;;;;;;5053270;28;20853;-69
2021/05/24 04:25:43;;;;;;;4.53;1.98;;;8.00;99.90;;;;;;5070837;28;20112;-69
2021/05/24 04:28:09;;;;;;;4.78;2.00;;;8.10;99.90;;;;;;5070945;28;20024;-68
2021/05/24 04:30:37;;;;;;;5.95;1.80;;;8.00;99.90;;;;;;5071038;28;20054;-68
2021/05/24 04:33:02;;;;;;;4.15;1.90;;;8.10;99.90;;;;;;5069091;28;20099;-68
2021/05/24 04:35:30;;;;;;;3.70;1.80;;;8.10;99.90;;;;;;5069738;28;20035;-68
2021/05/24 04:37:58;;;;;;;4.50;2.10;;;8.10;99.90;;;;;;5054299;28;20032;-68
2021/05/24 04:40:26;;;;;;;7.53;2.15;;;8.10;99.90;;;;;;5070604;28;20213;-68
2021/05/24 04:42:54;;;;;;;6.15;1.80;;;8.10;99.90;;;;;;5068345;28;20133;-68
2021/05/24 04:45:23;;;;;;;4.70;1.75;;;8.10;99.90;;;;;;5068898;28;20047;-69
2021/05/24 04:47:48;;;;;;;5.82;2.03;;;8.10;99.90;;;;;;5071548;28;20108;-68
2021/05/24 04:50:14;;;;;;;4.05;1.92;;;8.20;99.90;;;;;;5068720;28;20104;-68
2021/05/24 04:52:42;;;;;;;4.20;1.98;;;8.20;99.90;;;;;;5071576;28;20723;-68
2021/05/24 04:55:10;;;;;;;4.72;1.90;;;8.20;99.90;;;;;;5069184;28;20635;-68
2021/05/24 04:57:36;;;;;;;5.45;1.98;;;8.20;99.90;;;;;;5068831;28;20024;-68
2021/05/24 05:00:05;;;;;;;5.28;2.20;;;8.30;99.90;;;;;;5070828;28;20389;-68
2021/05/24 05:02:30;;;;;;;3.97;1.80;;;8.30;99.90;;;;;;5071518;28;20031;-68
2021/05/24 05:04:58;;;;;;;3.70;2.00;;;8.30;99.90;;;;;;5086009;28;20029;-69
2021/05/24 05:07:27;;;;;;;4.07;1.85;;;8.30;99.90;;;;;;5069309;28;20421;-68
2021/05/24 05:09:54;;;;;;;7.10;2.50;;;8.40;99.90;;;;;;5070807;28;20043;-68
2021/05/24 05:12:20;;;;;;;4.40;2.63;;;8.40;99.90;;;;;;5070710;28;20036;-68
2021/05/24 05:14:47;;;;;;;6.13;2.70;;;8.40;99.90;;;;;;5067842;28;20024;-68
2021/05/24 05:17:15;;;;;;;5.68;2.85;;;8.50;99.90;;;;;;5069726;28;20049;-68
2021/05/24 05:19:41;;;;;;;5.88;2.90;;;8.60;99.90;;;;;;5071062;28;20029;-68
2021/05/24 05:22:09;;;;;;;9.65;3.17;;;8.60;99.90;;;;;;5051058;28;20086;-68
2021/05/24 05:24:35;;;;;;;6.05;2.90;;;8.70;99.90;;;;;;5068409;28;20028;-68
2021/05/24 05:27:03;;;;;;;4.65;2.50;;;8.70;99.90;;;;;;5070257;28;20105;-68
2021/05/24 05:29:28;;;;;;;4.85;2.40;;;8.80;99.90;;;;;;5055972;28;20040;-67
2021/05/24 05:31:54;;;;;;;6.03;2.70;;;8.90;99.90;;;;;;5067589;28;20028;-68
2021/05/24 05:34:20;;;;;;;5.40;2.70;;;8.90;99.90;;;;;;5071023;28;20024;-68
2021/05/24 05:36:48;;;;;;;5.13;2.40;;;9.00;99.90;;;;;;5069927;28;20429;-67
2021/05/24 05:39:14;;;;;;;5.65;2.50;;;9.10;99.90;;;;;;5067780;28;20481;-67
2021/05/24 05:41:39;;;;;;;7.05;2.60;;;9.10;99.90;;;;;;5067327;28;20055;-68
2021/05/24 05:44:05;;;;;;;5.40;2.80;;;9.10;99.90;;;;;;5067644;28;20028;-67
2021/05/24 05:46:33;;;;;;;5.25;2.30;;;9.20;99.90;;;;;;5067958;28;20024;-68
2021/05/24 05:49:01;;;;;;;4.78;2.30;;;9.30;99.90;;;;;;5067058;28;20032;-67
2021/05/24 05:51:27;;;;;;;6.60;2.58;;;9.30;99.90;;;;;;5066384;28;20029;-68
2021/05/24 05:53:53;;;;;;;4.57;2.40;;;9.30;99.90;;;;;;5068689;28;20043;-67
2021/05/24 05:56:19;;;;;;;5.15;2.65;;;9.40;99.90;;;;;;5069005;28;20049;-68
2021/05/24 05:58:49;;;;;;;4.05;2.22;;;9.40;99.90;;;;;;5071801;28;20032;-68
2021/05/24 06:01:15;;;;;;;4.72;2.20;;;9.50;99.90;;;;;;5084855;28;20622;-68
2021/05/24 06:03:42;;;;;;;5.18;2.47;;;9.50;99.90;;;;;;5068233;28;20040;-68
2021/05/24 06:06:12;;;;;;;4.30;2.30;;;9.60;99.90;;;;;;5069338;28;20032;-68
2021/05/24 06:08:38;;;;;;;4.90;2.30;;;9.70;99.90;;;;;;5056156;28;20028;-67
2021/05/24 06:11:08;;;;;;;5.30;2.30;;;9.70;99.90;;;;;;5069387;28;20032;-68
2021/05/24 06:13:36;;;;;;;5.20;2.30;;;9.80;99.90;;;;;;5069118;28;20098;-68
2021/05/24 06:16:05;;;;;;;4.90;2.55;;;9.80;99.90;;;;;;5066695;28;20021;-67
2021/05/24 06:18:30;;;;;;;6.20;2.50;;;9.90;99.90;;;;;;5073480;28;20674;-68
2021/05/24 06:20:58;;;;;;;3.30;2.10;;;9.90;99.90;;;;;;5068876;28;20028;-67
2021/05/24 06:23:29;;;;;;;3.65;1.92;;;10.00;99.90;;;;;;5068814;28;20131;-67
2021/05/24 06:25:57;;;;;;;3.92;2.20;;;10.00;99.90;;;;;;5068894;28;20064;-68
2021/05/24 06:28:22;;;;;;;4.07;2.40;;;10.10;99.90;;;;;;5069591;28;20036;-67
2021/05/24 06:30:48;;;;;;;5.15;2.40;;;10.10;99.90;;;;;;5068066;28;20032;-68
2021/05/24 06:33:14;;;;;;;4.68;2.30;;;10.20;99.90;;;;;;5068084;28;20165;-68
2021/05/24 06:35:39;;;;;;;4.18;2.60;;;10.20;99.90;;;;;;5068541;28;20071;-68
2021/05/24 06:38:05;;;;;;;6.65;2.58;;;10.30;99.90;;;;;;5068897;28;20024;-67
2021/05/24 06:40:33;;;;;;;4.22;2.30;;;10.40;99.90;;;;;;5069756;28;20385;-68
2021/05/24 06:43:04;;;;;;;4.97;2.25;;;10.40;99.90;;;;;;5068458;28;20028;-68
2021/05/24 06:45:29;;;;;;;4.97;2.60;;;10.50;99.90;;;;;;5084510;28;20099;-68
2021/05/24 06:47:55;;;;;;;5.07;2.38;;;10.50;99.90;;;;;;5068541;28;20039;-67
2021/05/24 06:50:20;;;;;;;4.85;2.10;;;10.60;99.90;;;;;;5049292;28;20119;-67
2021/05/24 06:52:48;;;;;;;6.88;2.60;;;10.60;99.90;;;;;;5069355;28;20035;-67
2021/05/24 06:55:15;;;;;;;5.32;2.30;;;10.80;99.90;;;;;;5067800;28;20028;-70
2021/05/24 06:57:41;;;;;;;4.55;2.25;;;10.80;99.90;;;;;;5068593;28;20557;-67
2021/05/24 07:00:11;;;;;;;5.03;2.40;;;10.90;99.90;;;;;;5069073;28;20029;-68
2021/05/24 07:02:41;;;;;;;6.72;2.65;;;11.00;99.90;;;;;;5068525;28;20063;-68
2021/05/24 07:05:07;;;;;;;5.65;2.55;;;11.10;99.90;;;;;;5068239;28;20548;-67
2021/05/24 07:07:34;;;;;;;4.93;2.70;;;11.20;99.90;;;;;;5067382;28;20024;-67
2021/05/24 07:10:00;;;;;;;5.18;2.50;;;11.30;99.90;;;;;;5067836;28;20024;-68
2021/05/24 07:12:30;;;;;;;6.25;2.58;;;11.40;99.90;;;;;;5074273;28;20046;-71
2021/05/24 07:14:56;;;;;;;5.10;2.47;;;11.50;99.90;;;;;;5076801;28;20481;-71
2021/05/24 07:17:21;;;;;;;6.28;2.60;;;11.60;99.90;;;;;;5070134;28;20032;-71
2021/05/24 07:19:47;;;;;;;6.47;2.60;;;11.60;99.90;;;;;;5065323;28;20067;-71
2021/05/24 07:22:13;;;;;;;5.72;2.75;;;11.70;99.90;;;;;;5067671;28;20183;-71
2021/05/24 07:24:38;;;;;;;4.35;2.20;;;11.80;99.90;;;;;;5068479;28;20035;-71
2021/05/24 07:27:06;;;;;;;4.88;2.38;;;11.90;99.90;;;;;;5067635;28;20094;-71
2021/05/24 07:29:33;;;;;;;5.40;2.25;;;11.90;99.90;;;;;;5066816;28;20044;-71
2021/05/24 07:32:01;;;;;;;5.60;2.42;;;12.00;99.90;;;;;;5068644;28;20037;-72
2021/05/24 07:34:27;;;;;;;5.05;2.75;;;12.10;99.90;;;;;;5066319;28;20042;-71
2021/05/24 07:36:53;;;;;;;5.45;2.53;;;12.10;99.90;;;;;;5068868;28;20043;-71
2021/05/24 07:39:18;;;;;;;6.43;2.72;;;12.20;99.90;;;;;;5058638;28;20034;-71
2021/05/24 07:41:49;;;;;;;4.07;2.40;;;12.20;99.90;;;;;;5068342;28;20043;-71
2021/05/24 07:44:17;;;;;;;5.90;2.78;;;12.30;99.90;;;;;;5068535;28;20029;-72
2021/05/24 07:46:43;;;;;;;5.05;2.58;;;12.30;99.90;;;;;;5068084;28;20089;-71
2021/05/24 07:49:09;;;;;;;5.63;2.72;;;12.50;99.90;;;;;;5067122;28;20037;-72
2021/05/24 07:51:36;;;;;;;4.40;2.70;;;12.50;99.90;;;;;;5070979;28;20439;-71
2021/05/24 07:54:02;;;;;;;5.20;2.45;;;12.70;99.90;;;;;;5078019;28;20115;-71
2021/05/24 07:56:28;;;;;;;5.45;2.70;;;12.80;99.90;;;;;;5075427;28;20029;-71
2021/05/24 07:58:53;;;;;;;5.88;2.40;;;12.90;99.90;;;;;;5068661;28;20032;-70
2021/05/24 08:01:21;;;;;;;7.60;2.53;;;12.90;99.90;;;;;;5066519;28;20611;-71
2021/05/24 08:03:47;;;;;;;6.50;2.90;;;13.00;99.90;;;;;;5068632;28;20101;-71
2021/05/24 08:06:14;;;;;;;5.45;2.60;;;13.10;98.40;;;;;;5055227;28;20029;-72
2021/05/24 08:08:39;;;;;;;6.40;2.63;;;13.20;99.90;;;;;;5071529;28;20073;-71
2021/05/24 08:11:05;;;;;;;6.03;2.80;;;13.30;99.90;;;;;;5070864;28;20032;-70
2021/05/24 08:13:31;;;;;;;5.65;2.75;;;13.30;96.60;;;;;;5071582;28;20038;-70
2021/05/24 08:15:56;;;;;;;5.80;2.70;;;13.40;93.60;;;;;;5071590;28;20539;-70
2021/05/24 08:18:22;;;;;;;4.53;2.47;;;13.50;99.90;;;;;;5069785;28;20545;-72
2021/05/24 08:20:49;;;;;;;7.53;2.85;;;13.60;99.90;;;;;;5070618;28;20036;-71
2021/05/24 08:23:17;;;;;;;5.80;3.10;;;13.70;95.00;;;;;;5068563;28;20127;-71
2021/05/24 08:25:45;;;;;;;4.75;2.30;;;13.80;97.40;;;;;;5068938;28;20043;-71
2021/05/24 08:28:13;;;;;;;4.47;2.53;;;14.00;99.20;;;;;;5068793;28;20063;-71
2021/05/24 08:30:39;;;;;;;4.82;2.70;;;14.10;93.80;;;;;;5071658;28;20123;-70
2021/05/24 08:33:06;;;;;;;5.88;2.65;;;14.20;97.60;;;;;;5070585;28;20035;-71
2021/05/24 08:35:32;;;;;;;9.43;3.10;;;14.30;93.70;;;;;;5072864;28;20136;-71
2021/05/24 08:38:00;;;;;;;5.15;2.50;;;14.40;97.80;;;;;;5068290;28;20028;-71
2021/05/24 08:40:28;;;;;;;6.00;2.60;;;14.40;92.50;;;;;;5046620;28;20028;-71
2021/05/24 08:42:58;;;;;;;6.38;2.42;;;14.50;91.30;;;;;;5070458;28;20071;-72
2021/05/24 08:45:28;;;;;;;5.82;2.65;;;14.50;94.50;;;;;;5078852;28;20423;-74
2021/05/24 08:47:53;;;;;;;8.32;5.18;;;14.60;95.60;;;;;;5061141;28;20123;-76
2021/05/24 08:50:19;;;;;;;5.53;2.70;;;14.80;97.10;;;;;;5070708;28;20028;-74
2021/05/24 08:52:45;;;;;;;5.13;2.40;;;14.90;91.20;;;;;;5070187;28;20029;-71
2021/05/24 08:55:13;;;;;;;6.85;2.45;;;15.00;91.50;;;;;;5053469;28;20120;-71
2021/05/24 08:57:41;;;;;;;5.65;2.38;;;15.10;88.00;;;;;;5076758;28;20482;-74
2021/05/24 09:00:12;;;;;;;5.65;2.22;;;15.20;90.60;;;;;;5078651;28;20036;-74
2021/05/24 09:02:47;;;;;;;4.88;2.10;;;15.30;92.50;;;;;;5085493;28;20115;-72
2021/05/24 09:05:15;;;;;;;5.68;1.90;;;15.40;86.70;;;;;;5070902;28;20049;-71
2021/05/24 09:07:54;;;;;;;5.05;1.90;;;15.60;91.20;;;;;;5079248;28;20024;-71
2021/05/24 09:10:21;;;;;;;3.67;1.77;;;15.60;83.00;;;;;;5079771;28;20149;-70
2021/05/24 09:12:47;;;;;;;4.53;1.70;;;15.70;80.50;;;;;;5078076;28;20600;-72
2021/05/24 09:15:14;;;;;;;5.47;2.10;;;15.80;83.10;;;;;;5081143;28;20052;-71
2021/05/24 09:17:48;;;;;;;5.32;1.70;;;15.80;81.80;;;;;;5094343;28;20521;-71
2021/05/24 09:20:23;;;;;;;5.18;2.10;;;15.70;80.60;;;;;;5076389;28;20365;-76
2021/05/24 09:23:15;;;;;;;5.28;2.10;;;15.70;80.40;;;;;;5075236;28;20482;-75
2021/05/24 09:25:51;;;;;;;5.70;2.35;;;15.70;74.70;;;;;;5077398;28;20021;-71
2021/05/24 09:28:42;;;;;;;4.45;1.88;;;15.70;77.50;;;;;;5077301;28;20056;-71
2021/05/24 09:31:25;;;;;;;3.65;1.95;;;15.70;79.00;;;;;;5093237;28;20428;-71
2021/05/24 09:33:59;;;;;;;4.47;2.00;;;15.60;74.70;;;;;;5077870;28;20025;-71
2021/05/24 09:36:25;;;;;;;4.80;1.90;;;15.70;80.20;;;;;;5079767;28;20535;-71
2021/05/24 09:39:06;;;;;;;4.78;1.80;;;15.80;83.20;;;;;;5078790;28;20048;-71
2021/05/24 09:41:44;;;;;;;3.17;1.60;;;15.90;89.50;;;;;;5076640;28;20101;-71
2021/05/24 09:44:19;;;;;;;6.68;1.92;;;15.90;81.20;;;;;;5074460;28;20052;-72
2021/05/24 09:46:45;;;;;;;3.55;1.60;;;16.10;85.40;;;;;;5077116;28;20024;-71
2021/05/24 09:49:15;;;;;;;5.10;1.70;;;16.10;82.50;;;;;;5077797;28;20039;-72
2021/05/24 09:51:40;;;;;;;2.97;1.45;;;16.20;80.20;;;;;;5077022;28;20032;-72
2021/05/24 09:54:11;;;;;;;6.70;1.70;;;16.30;80.60;;;;;;5064448;28;20024;-72
2021/05/24 09:56:39;;;;;;;4.80;1.80;;;16.50;83.90;;;;;;5075324;28;20036;-72
2021/05/24 09:59:04;;;;;;;4.10;1.60;;;16.70;87.80;;;;;;5077003;28;20027;-72
2021/05/24 10:01:41;;;;;;;4.15;1.67;;;16.70;80.60;;;;;;5085844;28;20038;-71
2021/05/24 10:04:08;;;;;;;4.30;1.60;;;16.80;77.90;;;;;;5067774;28;20088;-76
2021/05/24 10:06:34;;;;;;;7.95;3.53;;;16.90;82.10;;;;;;5075037;28;20032;-76
2021/05/24 10:09:03;;;;;;;4.25;1.65;;;17.10;80.00;;;;;;5076841;28;20478;-77
2021/05/24 10:11:31;;;;;;;4.28;1.40;;;17.20;74.30;;;;;;5061007;28;20024;-76
2021/05/24 10:13:59;;;;;;;3.55;1.58;;;17.20;71.10;;;;;;5076181;28;20016;-77
2021/05/24 10:16:32;;;;;;;3.50;1.58;;;17.30;73.80;;;;;;5076339;28;20057;-76
2021/05/24 10:18:58;;;;;;;5.03;1.67;;;17.30;72.20;;;;;;5076563;28;20124;-75
2021/05/24 10:21:26;;;;;;;3.75;1.95;;;17.30;74.40;;;;;;5076788;28;20067;-75
2021/05/24 10:23:56;;;;;;;7.53;3.85;;;17.40;75.50;;;;;;5075850;28;20052;-75
2021/05/24 10:26:22;;;;;;;4.63;1.48;;;17.50;76.70;;;;;;5076951;28;20025;-72
2021/05/24 10:28:48;;;;;;;3.72;1.77;;;17.60;72.50;;;;;;5074599;28;20189;-72
2021/05/24 10:31:24;;;;;;;4.65;1.42;;;17.80;73.00;;;;;;5072190;28;20057;-73
2021/05/24 10:33:52;;;;;;;5.50;1.48;;;17.70;66.40;;;;;;5075500;28;20035;-72
2021/05/24 10:36:25;;;;;;;4.82;1.48;;;17.80;67.80;;;;;;5078191;28;20017;-74
2021/05/24 10:39:14;;;;;;;4.40;1.20;;;17.90;68.80;;;;;;5076224;28;20031;-74
2021/05/24 10:41:49;;;;;;;2.70;1.20;;;18.10;70.30;;;;;;5076068;28;20032;-77
2021/05/24 10:44:16;;;;;;;4.47;1.40;;;18.20;68.90;;;;;;5091966;27;20488;-79
2021/05/24 10:46:45;;;;;;;3.10;1.35;;;18.30;70.60;;;;;;5092679;28;20039;-74
2021/05/24 10:49:10;;;;;;;3.30;1.20;;;18.30;61.40;;;;;;5077476;28;20028;-77
2021/05/24 10:51:45;;;;;;;3.28;1.20;;;18.40;64.60;;;;;;5078637;28;20548;-76
2021/05/24 10:54:31;;;;;;;2.67;1.27;;;18.30;66.60;;;;;;5076329;28;20028;-76
2021/05/24 10:57:00;;;;;;;3.92;1.35;;;18.50;65.80;;;;;;5078015;28;20025;-75
2021/05/24 10:59:41;;;;;;;4.47;1.23;;;18.60;63.30;;;;;;5075212;28;20069;-76
2021/05/24 11:02:29;;;;;;;3.93;1.53;;;18.80;67.10;;;;;;5078562;28;20097;-77
2021/05/24 11:05:10;;;;;;;3.53;1.33;;;18.80;61.40;;;;;;5078807;28;20058;-76
2021/05/24 11:07:46;;;;;;;3.55;1.20;;;18.80;62.40;;;;;;5079886;28;20593;-79
2021/05/24 11:10:18;;;;;;;5.80;1.40;;;18.80;60.00;;;;;;5075535;28;20090;-77
2021/05/24 11:13:17;;;;;;;4.28;1.33;;;18.90;60.00;;;;;;5077083;28;20028;-71
2021/05/24 11:15:44;;;;;;;2.65;1.00;;;19.00;57.00;;;;;;5077318;28;20085;-71
2021/05/24 11:18:13;;;;;;;2.13;1.02;;;18.90;59.90;;;;;;5077793;28;20012;-72
2021/05/24 11:20:58;;;;;;;3.00;1.27;;;19.00;57.60;;;;;;4725866;28;10001130;-72
2021/05/24 11:23:48;;;;;;;4.50;1.30;;;19.20;59.80;;;;;;5074215;28;20045;-72
2021/05/24 11:26:25;;;;;;;3.97;1.35;;;19.30;58.50;;;;;;5076156;28;20113;-71
2021/05/24 11:29:01;;;;;;;4.30;1.40;;;19.50;57.50;;;;;;5072283;28;20032;-71
2021/05/24 11:31:39;;;;;;;3.63;1.30;;;19.40;55.60;;;;;;5073880;28;20028;-72
2021/05/24 11:34:08;;;;;;;2.47;1.27;;;19.60;59.20;;;;;;5072873;28;20028;-71
2021/05/24 11:36:38;;;;;;;3.22;1.23;;;19.60;59.80;;;;;;5074005;28;20032;-71
2021/05/24 11:39:15;;;;;;;3.05;1.10;;;19.70;55.90;;;;;;5087979;28;20364;-72
2021/05/24 11:42:10;;;;;;;4.10;1.30;;;19.70;57.00;;;;;;5073777;28;20308;-71
2021/05/24 11:44:45;;;;;;;3.35;1.02;;;19.90;57.10;;;;;;5075418;28;20115;-72
2021/05/24 11:47:14;;;;;;;3.28;1.20;;;20.30;56.00;;;;;;5072263;28;20032;-71
2021/05/24 11:49:44;;;;;;;3.17;1.20;;;20.40;57.80;;;;;;5077121;28;20093;-72
2021/05/24 11:52:14;;;;;;;3.17;1.17;;;20.50;51.80;;;;;;5082836;28;20066;-71
2021/05/24 11:54:39;;;;;;;7.65;1.30;;;20.50;56.70;;;;;;5068674;28;20059;-72
2021/05/24 11:57:08;;;;;;;2.42;1.20;;;20.60;58.90;;;;;;5077414;28;20849;-71
2021/05/24 11:59:37;;;;;;;7.20;2.50;;;20.80;52.70;;;;;;5079531;28;20024;-71
2021/05/24 12:02:04;;;;;;;3.10;1.45;;;21.00;55.90;;;;;;5074905;28;20117;-72
2021/05/24 12:04:30;;;;;;;1.85;0.90;;;20.90;55.20;;;;;;5074768;28;20391;-72
2021/05/24 12:07:01;;;;;;;3.58;1.23;;;21.00;52.10;;;;;;5078190;28;20636;-71
2021/05/24 12:09:40;;;;;;;2.67;1.23;;;20.80;50.40;;;;;;5073372;28;20033;-72
2021/05/24 12:12:21;;;;;;;2.00;1.17;;;21.00;55.10;;;;;;5076029;28;20467;-73
2021/05/24 12:14:55;;;;;;;3.72;1.48;;;21.00;54.80;;;;;;5076623;28;20024;-72
2021/05/24 12:17:26;;;;;;;2.35;1.15;;;20.90;53.40;;;;;;5076666;28;20078;-72
2021/05/24 12:19:57;;;;;;;3.33;1.23;;;21.10;53.90;;;;;;5078891;28;21844;-72
2021/05/24 12:22:25;;;;;;;3.20;1.15;;;21.30;53.40;;;;;;5077081;28;20049;-72
2021/05/24 12:24:52;;;;;;;2.97;1.02;;;21.50;55.20;;;;;;5078044;28;20043;-71
2021/05/24 12:27:21;;;;;;;4.07;1.30;;;21.50;52.60;;;;;;5077485;28;20064;-73
2021/05/24 12:29:54;;;;;;;3.63;1.35;;;21.50;54.00;;;;;;5075007;28;20028;-72
2021/05/24 12:32:50;;;;;;;5.90;1.40;;;21.30;52.00;;;;;;5077431;28;20028;-72
2021/05/24 12:35:19;;;;;;;2.55;1.10;;;21.40;54.80;;;;;;5062355;28;20836;-71
2021/05/24 12:37:51;;;;;;;4.80;1.40;;;21.30;56.70;;;;;;5075231;28;20515;-72
2021/05/24 12:40:17;;;;;;;;;;;21.30;55.90;;;;;;5065442;28;20028;-72
2021/05/24 12:42:42;;;;;;;2.97;1.23;;;21.30;53.70;;;;;;5074809;28;19923;-71
2021/05/24 12:45:10;;;;;;;3.58;1.20;;;20.90;50.80;;;;;;5074069;28;20101;-72
2021/05/24 12:47:35;;;;;;;3.45;1.10;;;21.00;52.10;;;;;;5076856;28;20044;-71
2021/05/24 12:50:13;;;;;;;3.85;1.50;;;20.90;50.80;;;;;;5076337;28;20110;-70
2021/05/24 12:52:39;;;;;;;4.78;1.23;;;21.00;53.40;;;;;;5075456;28;20043;-73
2021/05/24 12:55:09;;;;;;;3.90;1.20;;;21.10;54.50;;;;;;5058053;28;20028;-71
2021/05/24 12:57:37;;;;;;;4.38;1.70;;;21.20;56.70;;;;;;5076334;28;20046;-71
2021/05/24 13:00:07;;;;;;;5.82;1.20;;;21.40;55.70;;;;;;5075103;28;20028;-72
2021/05/24 13:02:32;;;;;;;3.90;1.38;;;21.40;53.50;;;;;;5075259;28;20039;-72